Moscow, Indiana
Current Conditions -  °F | °C
As of 6:53 PM on Wednesday 26 Nov 2014 (Local Time) from KGEZ Reporting Station
Clear Clear  
Wind Chill: 26°   Ceiling: Unl
Heat Index: 31°   Visibility: 10mi
Dew Point: 24°   Wind: 5mph
Humidity: 76%   Direction: 40°NE
Pressure: 30.05"   Gusts: NA
Location:  39.4961°N, 85.5177°W
Report Text: KGEZ 262353Z AUTO 04004KT 10SM CLR M01/M04 A3005 RMK AO2 SLP183 T10061044 10022 21006 50004
Loading
Personal Weather Stations






























Interactive Weather Map New forecast layout! Learn more

10-Day Weather Forecast

Advertisements
Track Severe Weather on mobile